sensor_id;sensor_type;location;lat;lon;timestamp;P1;durP1;ratioP1;P2;durP2;ratioP2
50631;SDS011;49583;45.590;-122.498;2023-08-24T00:02:11;5.70;;;2.40;;
50631;SDS011;49583;45.590;-122.498;2023-08-24T00:04:24;3.00;;;2.40;;
50631;SDS011;49583;45.590;-122.498;2023-08-24T00:06:36;2.30;;;2.00;;
50631;SDS011;49583;45.590;-122.498;2023-08-24T00:08:49;7.10;;;2.00;;
50631;SDS011;49583;45.590;-122.498;2023-08-24T00:11:01;3.70;;;2.30;;
50631;SDS011;49583;45.590;-122.498;2023-08-24T00:13:15;4.50;;;2.00;;
50631;SDS011;49583;45.590;-122.498;2023-08-24T00:15:27;5.30;;;2.30;;
50631;SDS011;49583;45.590;-122.498;2023-08-24T00:17:40;4.60;;;2.20;;
50631;SDS011;49583;45.590;-122.498;2023-08-24T00:19:52;4.70;;;2.70;;
50631;SDS011;49583;45.590;-122.498;2023-08-24T00:22:05;3.90;;;2.70;;
50631;SDS011;49583;45.590;-122.498;2023-08-24T00:24:17;4.60;;;2.80;;
50631;SDS011;49583;45.590;-122.498;2023-08-24T00:26:30;2.20;;;2.00;;
50631;SDS011;49583;45.590;-122.498;2023-08-24T00:28:43;3.60;;;2.70;;
50631;SDS011;49583;45.590;-122.498;2023-08-24T00:30:55;2.40;;;2.10;;
50631;SDS011;49583;45.590;-122.498;2023-08-24T00:33:08;2.70;;;2.30;;
50631;SDS011;49583;45.590;-122.498;2023-08-24T00:35:21;4.40;;;2.30;;
50631;SDS011;49583;45.590;-122.498;2023-08-24T00:37:33;2.60;;;2.30;;
50631;SDS011;49583;45.590;-122.498;2023-08-24T00:39:46;2.80;;;2.50;;
50631;SDS011;49583;45.590;-122.498;2023-08-24T00:41:59;2.70;;;2.20;;
50631;SDS011;49583;45.590;-122.498;2023-08-24T00:44:13;4.50;;;2.20;;
50631;SDS011;49583;45.590;-122.498;2023-08-24T00:46:26;2.70;;;2.10;;
50631;SDS011;49583;45.590;-122.498;2023-08-24T00:48:39;8.20;;;2.60;;
50631;SDS011;49583;45.590;-122.498;2023-08-24T00:50:52;4.10;;;2.40;;
50631;SDS011;49583;45.590;-122.498;2023-08-24T00:53:05;3.30;;;2.20;;
50631;SDS011;49583;45.590;-122.498;2023-08-24T00:55:18;3.40;;;2.30;;
50631;SDS011;49583;45.590;-122.498;2023-08-24T00:57:32;7.00;;;2.10;;
50631;SDS011;49583;45.590;-122.498;2023-08-24T00:59:46;3.40;;;2.40;;
50631;SDS011;49583;45.590;-122.498;2023-08-24T01:01:59;5.50;;;2.70;;
50631;SDS011;49583;45.590;-122.498;2023-08-24T01:04:12;3.60;;;1.90;;
50631;SDS011;49583;45.590;-122.498;2023-08-24T01:06:25;4.60;;;2.40;;
50631;SDS011;49583;45.590;-122.498;2023-08-24T01:08:38;3.00;;;2.30;;
50631;SDS011;49583;45.590;-122.498;2023-08-24T01:10:52;2.90;;;2.30;;
50631;SDS011;49583;45.590;-122.498;2023-08-24T01:13:10;3.60;;;2.20;;
50631;SDS011;49583;45.590;-122.498;2023-08-24T01:15:32;3.30;;;2.30;;
50631;SDS011;49583;45.590;-122.498;2023-08-24T01:17:50;3.00;;;2.30;;
50631;SDS011;49583;45.590;-122.498;2023-08-24T01:20:10;4.60;;;2.30;;
50631;SDS011;49583;45.590;-122.498;2023-08-24T01:22:28;4.90;;;2.50;;
50631;SDS011;49583;45.590;-122.498;2023-08-24T01:24:53;2.30;;;2.10;;
50631;SDS011;49583;45.590;-122.498;2023-08-24T01:27:15;6.50;;;2.40;;
50631;SDS011;49583;45.590;-122.498;2023-08-24T01:29:31;2.20;;;2.00;;
50631;SDS011;49583;45.590;-122.498;2023-08-24T01:31:46;3.80;;;2.50;;
50631;SDS011;49583;45.590;-122.498;2023-08-24T01:34:01;3.10;;;2.80;;
50631;SDS011;49583;45.590;-122.498;2023-08-24T01:36:15;6.30;;;2.60;;
50631;SDS011;49583;45.590;-122.498;2023-08-24T01:38:29;6.70;;;2.70;;
50631;SDS011;49583;45.590;-122.498;2023-08-24T01:40:51;5.80;;;2.70;;
50631;SDS011;49583;45.590;-122.498;2023-08-24T01:43:10;2.50;;;2.00;;
50631;SDS011;49583;45.590;-122.498;2023-08-24T01:45:47;4.40;;;2.20;;
50631;SDS011;49583;45.590;-122.498;2023-08-24T01:48:03;3.50;;;2.30;;
50631;SDS011;49583;45.590;-122.498;2023-08-24T01:50:21;3.60;;;2.30;;
50631;SDS011;49583;45.590;-122.498;2023-08-24T01:52:37;3.20;;;2.90;;
50631;SDS011;49583;45.590;-122.498;2023-08-24T01:54:52;2.90;;;2.60;;
50631;SDS011;49583;45.590;-122.498;2023-08-24T01:57:06;3.30;;;2.40;;
50631;SDS011;49583;45.590;-122.498;2023-08-24T01:59:20;4.90;;;2.00;;
50631;SDS011;49583;45.590;-122.498;2023-08-24T02:01:34;4.50;;;2.40;;
50631;SDS011;49583;45.590;-122.498;2023-08-24T02:04:08;4.10;;;2.00;;
50631;SDS011;49583;45.590;-122.498;2023-08-24T02:06:21;2.60;;;2.00;;
50631;SDS011;49583;45.590;-122.498;2023-08-24T02:08:35;3.90;;;2.10;;
50631;SDS011;49583;45.590;-122.498;2023-08-24T02:10:49;6.00;;;3.10;;
50631;SDS011;49583;45.590;-122.498;2023-08-24T02:13:04;3.20;;;2.30;;
50631;SDS011;49583;45.590;-122.498;2023-08-24T02:15:18;3.70;;;2.50;;
50631;SDS011;49583;45.590;-122.498;2023-08-24T02:17:30;2.40;;;2.20;;
50631;SDS011;49583;45.590;-122.498;2023-08-24T02:19:43;6.40;;;2.00;;
50631;SDS011;49583;45.590;-122.498;2023-08-24T02:21:56;4.50;;;2.50;;
50631;SDS011;49583;45.590;-122.498;2023-08-24T02:24:11;5.80;;;2.30;;
50631;SDS011;49583;45.590;-122.498;2023-08-24T02:26:24;3.70;;;2.40;;
50631;SDS011;49583;45.590;-122.498;2023-08-24T02:28:38;3.30;;;2.40;;
50631;SDS011;49583;45.590;-122.498;2023-08-24T02:30:50;2.10;;;1.90;;
50631;SDS011;49583;45.590;-122.498;2023-08-24T02:33:05;2.90;;;2.60;;
50631;SDS011;49583;45.590;-122.498;2023-08-24T02:35:18;2.80;;;2.20;;
50631;SDS011;49583;45.590;-122.498;2023-08-24T02:37:30;3.80;;;2.20;;
50631;SDS011;49583;45.590;-122.498;2023-08-24T02:39:43;2.90;;;2.00;;
50631;SDS011;49583;45.590;-122.498;2023-08-24T02:41:55;2.80;;;2.30;;
50631;SDS011;49583;45.590;-122.498;2023-08-24T02:44:08;9.20;;;2.00;;
50631;SDS011;49583;45.590;-122.498;2023-08-24T02:46:21;3.00;;;2.70;;
50631;SDS011;49583;45.590;-122.498;2023-08-24T02:48:34;2.80;;;2.00;;
50631;SDS011;49583;45.590;-122.498;2023-08-24T02:50:47;2.30;;;2.10;;
50631;SDS011;49583;45.590;-122.498;2023-08-24T02:53:00;5.30;;;2.30;;
50631;SDS011;49583;45.590;-122.498;2023-08-24T02:55:13;3.70;;;2.50;;
50631;SDS011;49583;45.590;-122.498;2023-08-24T02:57:26;3.50;;;2.50;;
50631;SDS011;49583;45.590;-122.498;2023-08-24T02:59:39;3.60;;;2.30;;
50631;SDS011;49583;45.590;-122.498;2023-08-24T03:01:51;3.80;;;2.30;;
50631;SDS011;49583;45.590;-122.498;2023-08-24T03:04:05;7.00;;;2.60;;
50631;SDS011;49583;45.590;-122.498;2023-08-24T03:06:18;3.30;;;2.80;;
50631;SDS011;49583;45.590;-122.498;2023-08-24T03:08:32;2.90;;;2.50;;
50631;SDS011;49583;45.590;-122.498;2023-08-24T03:10:45;2.50;;;2.30;;
50631;SDS011;49583;45.590;-122.498;2023-08-24T03:12:57;3.30;;;2.60;;
50631;SDS011;49583;45.590;-122.498;2023-08-24T03:15:11;3.60;;;2.50;;
50631;SDS011;49583;45.590;-122.498;2023-08-24T03:17:24;3.00;;;2.70;;
50631;SDS011;49583;45.590;-122.498;2023-08-24T03:19:36;4.30;;;2.80;;
50631;SDS011;49583;45.590;-122.498;2023-08-24T03:21:50;3.90;;;2.80;;
50631;SDS011;49583;45.590;-122.498;2023-08-24T03:24:03;3.60;;;2.60;;
50631;SDS011;49583;45.590;-122.498;2023-08-24T03:26:18;7.50;;;3.00;;
50631;SDS011;49583;45.590;-122.498;2023-08-24T03:28:32;5.70;;;2.90;;
50631;SDS011;49583;45.590;-122.498;2023-08-24T03:30:47;6.70;;;3.10;;
50631;SDS011;49583;45.590;-122.498;2023-08-24T03:33:03;4.30;;;3.00;;
50631;SDS011;49583;45.590;-122.498;2023-08-24T03:35:16;5.10;;;2.30;;
50631;SDS011;49583;45.590;-122.498;2023-08-24T03:37:29;3.10;;;2.80;;
50631;SDS011;49583;45.590;-122.498;2023-08-24T03:39:46;3.30;;;3.00;;
50631;SDS011;49583;45.590;-122.498;2023-08-24T03:41:58;4.40;;;3.10;;
50631;SDS011;49583;45.590;-122.498;2023-08-24T03:44:11;5.50;;;3.30;;
50631;SDS011;49583;45.590;-122.498;2023-08-24T03:46:24;6.40;;;2.70;;
50631;SDS011;49583;45.590;-122.498;2023-08-24T03:48:37;4.90;;;3.20;;
50631;SDS011;49583;45.590;-122.498;2023-08-24T03:50:53;3.20;;;2.90;;
50631;SDS011;49583;45.590;-122.498;2023-08-24T03:53:08;4.60;;;3.10;;
50631;SDS011;49583;45.590;-122.498;2023-08-24T03:55:20;6.70;;;3.60;;
50631;SDS011;49583;45.590;-122.498;2023-08-24T03:57:33;4.30;;;3.30;;
50631;SDS011;49583;45.590;-122.498;2023-08-24T03:59:45;6.70;;;3.40;;
50631;SDS011;49583;45.590;-122.498;2023-08-24T04:01:58;4.50;;;3.20;;
50631;SDS011;49583;45.590;-122.498;2023-08-24T04:04:11;6.70;;;3.60;;
50631;SDS011;49583;45.590;-122.498;2023-08-24T04:06:24;5.20;;;4.00;;
50631;SDS011;49583;45.590;-122.498;2023-08-24T04:08:37;6.30;;;3.60;;
50631;SDS011;49583;45.590;-122.498;2023-08-24T04:10:50;5.60;;;4.10;;
50631;SDS011;49583;45.590;-122.498;2023-08-24T04:13:03;6.10;;;4.20;;
50631;SDS011;49583;45.590;-122.498;2023-08-24T04:15:16;10.00;;;3.70;;
50631;SDS011;49583;45.590;-122.498;2023-08-24T04:17:28;5.60;;;3.80;;
50631;SDS011;49583;45.590;-122.498;2023-08-24T04:19:41;5.30;;;3.80;;
50631;SDS011;49583;45.590;-122.498;2023-08-24T04:21:53;6.40;;;3.80;;
50631;SDS011;49583;45.590;-122.498;2023-08-24T04:24:06;7.10;;;4.00;;
50631;SDS011;49583;45.590;-122.498;2023-08-24T04:26:19;5.80;;;3.30;;
50631;SDS011;49583;45.590;-122.498;2023-08-24T04:28:31;4.20;;;3.50;;
50631;SDS011;49583;45.590;-122.498;2023-08-24T04:30:51;5.50;;;3.90;;
50631;SDS011;49583;45.590;-122.498;2023-08-24T04:33:04;6.80;;;4.00;;
50631;SDS011;49583;45.590;-122.498;2023-08-24T04:35:17;12.40;;;4.70;;
50631;SDS011;49583;45.590;-122.498;2023-08-24T04:37:29;5.50;;;3.50;;
50631;SDS011;49583;45.590;-122.498;2023-08-24T04:39:41;5.50;;;3.80;;
50631;SDS011;49583;45.590;-122.498;2023-08-24T04:41:54;4.70;;;3.60;;
50631;SDS011;49583;45.590;-122.498;2023-08-24T04:44:07;5.60;;;4.30;;
50631;SDS011;49583;45.590;-122.498;2023-08-24T04:46:20;6.40;;;3.50;;
50631;SDS011;49583;45.590;-122.498;2023-08-24T04:48:33;5.20;;;3.80;;
50631;SDS011;49583;45.590;-122.498;2023-08-24T04:50:46;4.90;;;3.70;;
50631;SDS011;49583;45.590;-122.498;2023-08-24T04:53:01;4.70;;;3.20;;
50631;SDS011;49583;45.590;-122.498;2023-08-24T04:55:13;9.30;;;3.80;;
50631;SDS011;49583;45.590;-122.498;2023-08-24T04:57:26;5.30;;;3.40;;
50631;SDS011;49583;45.590;-122.498;2023-08-24T04:59:39;4.60;;;3.50;;
50631;SDS011;49583;45.590;-122.498;2023-08-24T05:01:51;4.80;;;4.00;;
50631;SDS011;49583;45.590;-122.498;2023-08-24T05:04:04;4.50;;;4.00;;
50631;SDS011;49583;45.590;-122.498;2023-08-24T05:06:16;4.80;;;3.90;;
50631;SDS011;49583;45.590;-122.498;2023-08-24T05:08:28;4.60;;;3.70;;
50631;SDS011;49583;45.590;-122.498;2023-08-24T05:10:41;5.70;;;3.70;;
50631;SDS011;49583;45.590;-122.498;2023-08-24T05:12:54;5.30;;;4.10;;
50631;SDS011;49583;45.590;-122.498;2023-08-24T05:15:07;7.50;;;3.80;;
50631;SDS011;49583;45.590;-122.498;2023-08-24T05:17:20;5.10;;;3.90;;
50631;SDS011;49583;45.590;-122.498;2023-08-24T05:19:34;4.10;;;3.70;;
50631;SDS011;49583;45.590;-122.498;2023-08-24T05:21:46;4.40;;;3.70;;
50631;SDS011;49583;45.590;-122.498;2023-08-24T05:23:59;4.10;;;3.60;;
50631;SDS011;49583;45.590;-122.498;2023-08-24T05:26:12;6.30;;;3.70;;
50631;SDS011;49583;45.590;-122.498;2023-08-24T05:28:30;4.20;;;3.80;;
50631;SDS011;49583;45.590;-122.498;2023-08-24T05:30:43;4.90;;;3.80;;
50631;SDS011;49583;45.590;-122.498;2023-08-24T05:32:55;3.90;;;3.60;;
50631;SDS011;49583;45.590;-122.498;2023-08-24T05:35:09;7.10;;;4.10;;
50631;SDS011;49583;45.590;-122.498;2023-08-24T05:37:21;5.60;;;4.00;;
50631;SDS011;49583;45.590;-122.498;2023-08-24T05:39:34;4.70;;;4.00;;
50631;SDS011;49583;45.590;-122.498;2023-08-24T05:41:49;4.00;;;3.60;;
50631;SDS011;49583;45.590;-122.498;2023-08-24T05:44:02;7.10;;;3.50;;
50631;SDS011;49583;45.590;-122.498;2023-08-24T05:46:15;5.70;;;3.30;;
50631;SDS011;49583;45.590;-122.498;2023-08-24T05:48:28;4.50;;;3.50;;
50631;SDS011;49583;45.590;-122.498;2023-08-24T05:50:50;6.60;;;3.70;;
50631;SDS011;49583;45.590;-122.498;2023-08-24T05:53:02;5.90;;;3.70;;
50631;SDS011;49583;45.590;-122.498;2023-08-24T05:55:15;4.60;;;3.90;;
50631;SDS011;49583;45.590;-122.498;2023-08-24T05:57:28;4.30;;;3.90;;
50631;SDS011;49583;45.590;-122.498;2023-08-24T05:59:40;4.80;;;3.80;;
50631;SDS011;49583;45.590;-122.498;2023-08-24T06:01:53;4.70;;;3.70;;
50631;SDS011;49583;45.590;-122.498;2023-08-24T06:04:06;7.70;;;3.80;;
50631;SDS011;49583;45.590;-122.498;2023-08-24T06:06:18;5.10;;;4.00;;
50631;SDS011;49583;45.590;-122.498;2023-08-24T06:08:31;4.50;;;3.90;;
50631;SDS011;49583;45.590;-122.498;2023-08-24T06:10:43;4.00;;;3.60;;
50631;SDS011;49583;45.590;-122.498;2023-08-24T06:12:56;6.60;;;4.00;;
50631;SDS011;49583;45.590;-122.498;2023-08-24T06:15:09;5.70;;;3.70;;
50631;SDS011;49583;45.590;-122.498;2023-08-24T06:17:25;4.50;;;4.00;;
50631;SDS011;49583;45.590;-122.498;2023-08-24T06:19:37;4.40;;;3.50;;
50631;SDS011;49583;45.590;-122.498;2023-08-24T06:21:50;6.90;;;3.70;;
50631;SDS011;49583;45.590;-122.498;2023-08-24T06:24:03;5.50;;;3.80;;
50631;SDS011;49583;45.590;-122.498;2023-08-24T06:26:16;3.80;;;3.50;;
50631;SDS011;49583;45.590;-122.498;2023-08-24T06:28:29;3.90;;;3.40;;
50631;SDS011;49583;45.590;-122.498;2023-08-24T06:30:41;4.50;;;3.80;;
50631;SDS011;49583;45.590;-122.498;2023-08-24T06:32:55;4.40;;;4.00;;
50631;SDS011;49583;45.590;-122.498;2023-08-24T06:35:08;5.40;;;3.70;;
50631;SDS011;49583;45.590;-122.498;2023-08-24T06:37:22;5.60;;;4.20;;
50631;SDS011;49583;45.590;-122.498;2023-08-24T06:39:35;7.10;;;3.80;;
50631;SDS011;49583;45.590;-122.498;2023-08-24T06:41:47;4.60;;;3.50;;
50631;SDS011;49583;45.590;-122.498;2023-08-24T06:44:04;6.00;;;3.80;;
50631;SDS011;49583;45.590;-122.498;2023-08-24T06:46:16;5.00;;;3.60;;
50631;SDS011;49583;45.590;-122.498;2023-08-24T06:48:29;4.70;;;3.60;;
50631;SDS011;49583;45.590;-122.498;2023-08-24T06:50:42;4.00;;;3.40;;
50631;SDS011;49583;45.590;-122.498;2023-08-24T06:52:55;4.80;;;3.80;;
50631;SDS011;49583;45.590;-122.498;2023-08-24T06:55:08;5.10;;;3.90;;
50631;SDS011;49583;45.590;-122.498;2023-08-24T06:57:20;4.30;;;3.40;;
50631;SDS011;49583;45.590;-122.498;2023-08-24T06:59:33;5.20;;;3.70;;
50631;SDS011;49583;45.590;-122.498;2023-08-24T07:01:45;7.40;;;3.50;;
50631;SDS011;49583;45.590;-122.498;2023-08-24T07:03:58;4.10;;;3.70;;
50631;SDS011;49583;45.590;-122.498;2023-08-24T07:06:10;5.80;;;3.80;;
50631;SDS011;49583;45.590;-122.498;2023-08-24T07:08:23;7.00;;;3.80;;
50631;SDS011;49583;45.590;-122.498;2023-08-24T07:10:35;4.10;;;3.80;;
50631;SDS011;49583;45.590;-122.498;2023-08-24T07:12:48;6.90;;;3.60;;
50631;SDS011;49583;45.590;-122.498;2023-08-24T07:15:01;3.80;;;3.30;;
50631;SDS011;49583;45.590;-122.498;2023-08-24T07:17:14;5.30;;;4.30;;
50631;SDS011;49583;45.590;-122.498;2023-08-24T07:19:26;4.40;;;4.00;;
50631;SDS011;49583;45.590;-122.498;2023-08-24T07:21:39;4.60;;;3.80;;
50631;SDS011;49583;45.590;-122.498;2023-08-24T07:23:51;4.30;;;3.50;;
50631;SDS011;49583;45.590;-122.498;2023-08-24T07:26:04;8.50;;;3.50;;
50631;SDS011;49583;45.590;-122.498;2023-08-24T07:28:17;4.10;;;3.70;;
50631;SDS011;49583;45.590;-122.498;2023-08-24T07:30:30;6.30;;;3.60;;
50631;SDS011;49583;45.590;-122.498;2023-08-24T07:32:45;7.50;;;4.30;;
50631;SDS011;49583;45.590;-122.498;2023-08-24T07:34:57;8.70;;;4.70;;
50631;SDS011;49583;45.590;-122.498;2023-08-24T07:37:09;5.80;;;4.00;;
50631;SDS011;49583;45.590;-122.498;2023-08-24T07:39:22;9.90;;;4.10;;
50631;SDS011;49583;45.590;-122.498;2023-08-24T07:41:34;6.20;;;4.20;;
50631;SDS011;49583;45.590;-122.498;2023-08-24T07:43:46;6.90;;;4.40;;
50631;SDS011;49583;45.590;-122.498;2023-08-24T07:45:59;6.60;;;3.70;;
50631;SDS011;49583;45.590;-122.498;2023-08-24T07:48:14;8.30;;;3.90;;
50631;SDS011;49583;45.590;-122.498;2023-08-24T07:50:27;4.80;;;4.30;;
50631;SDS011;49583;45.590;-122.498;2023-08-24T07:52:39;5.90;;;4.00;;
50631;SDS011;49583;45.590;-122.498;2023-08-24T07:54:52;6.90;;;4.30;;
50631;SDS011;49583;45.590;-122.498;2023-08-24T07:57:06;6.70;;;3.70;;
50631;SDS011;49583;45.590;-122.498;2023-08-24T07:59:18;4.60;;;4.20;;
50631;SDS011;49583;45.590;-122.498;2023-08-24T08:01:31;5.60;;;4.20;;
50631;SDS011;49583;45.590;-122.498;2023-08-24T08:03:44;5.70;;;3.90;;
50631;SDS011;49583;45.590;-122.498;2023-08-24T08:05:56;6.90;;;4.70;;
50631;SDS011;49583;45.590;-122.498;2023-08-24T08:08:08;4.70;;;3.60;;
50631;SDS011;49583;45.590;-122.498;2023-08-24T08:10:21;5.20;;;4.50;;
50631;SDS011;49583;45.590;-122.498;2023-08-24T08:12:34;7.40;;;4.10;;
50631;SDS011;49583;45.590;-122.498;2023-08-24T08:14:46;10.10;;;4.50;;
50631;SDS011;49583;45.590;-122.498;2023-08-24T08:16:59;9.50;;;4.60;;
50631;SDS011;49583;45.590;-122.498;2023-08-24T08:19:12;6.80;;;4.50;;
50631;SDS011;49583;45.590;-122.498;2023-08-24T08:21:26;6.40;;;4.30;;
50631;SDS011;49583;45.590;-122.498;2023-08-24T08:23:39;9.40;;;4.60;;
50631;SDS011;49583;45.590;-122.498;2023-08-24T08:25:52;6.20;;;4.20;;
50631;SDS011;49583;45.590;-122.498;2023-08-24T08:28:06;13.00;;;3.80;;
50631;SDS011;49583;45.590;-122.498;2023-08-24T08:30:18;5.60;;;3.90;;
50631;SDS011;49583;45.590;-122.498;2023-08-24T08:32:31;6.70;;;4.50;;
50631;SDS011;49583;45.590;-122.498;2023-08-24T08:34:43;7.00;;;4.40;;
50631;SDS011;49583;45.590;-122.498;2023-08-24T08:36:56;6.00;;;4.50;;
50631;SDS011;49583;45.590;-122.498;2023-08-24T08:39:08;8.70;;;4.40;;
50631;SDS011;49583;45.590;-122.498;2023-08-24T08:41:21;5.90;;;4.10;;
50631;SDS011;49583;45.590;-122.498;2023-08-24T08:43:37;6.80;;;4.10;;
50631;SDS011;49583;45.590;-122.498;2023-08-24T08:45:50;6.90;;;4.20;;
50631;SDS011;49583;45.590;-122.498;2023-08-24T08:48:06;4.60;;;4.10;;
50631;SDS011;49583;45.590;-122.498;2023-08-24T08:50:20;5.00;;;4.30;;
50631;SDS011;49583;45.590;-122.498;2023-08-24T08:52:36;7.60;;;4.00;;
50631;SDS011;49583;45.590;-122.498;2023-08-24T08:54:48;7.00;;;4.50;;
50631;SDS011;49583;45.590;-122.498;2023-08-24T08:57:01;5.10;;;4.50;;
50631;SDS011;49583;45.590;-122.498;2023-08-24T08:59:14;4.90;;;4.20;;
50631;SDS011;49583;45.590;-122.498;2023-08-24T09:01:27;5.80;;;3.90;;
50631;SDS011;49583;45.590;-122.498;2023-08-24T09:03:39;6.50;;;3.60;;
50631;SDS011;49583;45.590;-122.498;2023-08-24T09:05:53;4.50;;;3.90;;
50631;SDS011;49583;45.590;-122.498;2023-08-24T09:08:06;6.90;;;3.90;;
50631;SDS011;49583;45.590;-122.498;2023-08-24T09:10:20;5.80;;;4.10;;
50631;SDS011;49583;45.590;-122.498;2023-08-24T09:12:33;6.00;;;4.20;;
50631;SDS011;49583;45.590;-122.498;2023-08-24T09:14:45;4.90;;;3.90;;
50631;SDS011;49583;45.590;-122.498;2023-08-24T09:16:57;8.90;;;4.20;;
50631;SDS011;49583;45.590;-122.498;2023-08-24T09:19:13;5.50;;;3.80;;
50631;SDS011;49583;45.590;-122.498;2023-08-24T09:21:27;4.30;;;3.80;;
50631;SDS011;49583;45.590;-122.498;2023-08-24T09:23:42;4.70;;;3.50;;
50631;SDS011;49583;45.590;-122.498;2023-08-24T09:26:02;4.80;;;4.20;;
50631;SDS011;49583;45.590;-122.498;2023-08-24T09:28:15;3.90;;;3.50;;
50631;SDS011;49583;45.590;-122.498;2023-08-24T09:30:34;8.50;;;4.00;;
50631;SDS011;49583;45.590;-122.498;2023-08-24T09:32:47;4.50;;;3.30;;
50631;SDS011;49583;45.590;-122.498;2023-08-24T09:35:04;4.00;;;3.30;;
50631;SDS011;49583;45.590;-122.498;2023-08-24T09:37:19;4.70;;;3.80;;
50631;SDS011;49583;45.590;-122.498;2023-08-24T09:39:32;5.10;;;3.50;;
50631;SDS011;49583;45.590;-122.498;2023-08-24T09:41:44;5.70;;;4.10;;
50631;SDS011;49583;45.590;-122.498;2023-08-24T09:44:05;6.70;;;4.50;;
50631;SDS011;49583;45.590;-122.498;2023-08-24T09:46:20;5.50;;;3.90;;
50631;SDS011;49583;45.590;-122.498;2023-08-24T09:48:33;5.70;;;3.80;;
50631;SDS011;49583;45.590;-122.498;2023-08-24T09:50:46;7.40;;;3.70;;
50631;SDS011;49583;45.590;-122.498;2023-08-24T09:53:00;5.60;;;4.60;;
50631;SDS011;49583;45.590;-122.498;2023-08-24T09:55:13;6.00;;;3.90;;
50631;SDS011;49583;45.590;-122.498;2023-08-24T09:57:31;5.10;;;4.10;;
50631;SDS011;49583;45.590;-122.498;2023-08-24T09:59:46;6.80;;;3.90;;
50631;SDS011;49583;45.590;-122.498;2023-08-24T10:02:02;6.00;;;3.70;;
50631;SDS011;49583;45.590;-122.498;2023-08-24T10:04:21;5.20;;;3.40;;
50631;SDS011;49583;45.590;-122.498;2023-08-24T10:06:34;4.90;;;3.80;;
50631;SDS011;49583;45.590;-122.498;2023-08-24T10:08:52;7.10;;;3.60;;
50631;SDS011;49583;45.590;-122.498;2023-08-24T10:11:11;5.80;;;3.70;;
50631;SDS011;49583;45.590;-122.498;2023-08-24T10:13:31;4.50;;;3.50;;
50631;SDS011;49583;45.590;-122.498;2023-08-24T10:15:50;5.00;;;3.20;;
50631;SDS011;49583;45.590;-122.498;2023-08-24T10:18:05;11.00;;;4.40;;
50631;SDS011;49583;45.590;-122.498;2023-08-24T10:20:20;10.10;;;4.10;;
50631;SDS011;49583;45.590;-122.498;2023-08-24T10:22:35;15.00;;;4.60;;
50631;SDS011;49583;45.590;-122.498;2023-08-24T10:24:49;10.90;;;4.30;;
50631;SDS011;49583;45.590;-122.498;2023-08-24T10:27:03;12.20;;;4.50;;
50631;SDS011;49583;45.590;-122.498;2023-08-24T10:29:18;11.10;;;4.20;;
50631;SDS011;49583;45.590;-122.498;2023-08-24T10:34:19;6.20;;;3.50;;
50631;SDS011;49583;45.590;-122.498;2023-08-24T10:36:32;5.30;;;3.80;;
50631;SDS011;49583;45.590;-122.498;2023-08-24T10:38:47;4.70;;;3.40;;
50631;SDS011;49583;45.590;-122.498;2023-08-24T10:41:03;4.10;;;3.30;;
50631;SDS011;49583;45.590;-122.498;2023-08-24T10:43:18;6.50;;;3.80;;
50631;SDS011;49583;45.590;-122.498;2023-08-24T10:48:07;7.50;;;3.80;;
50631;SDS011;49583;45.590;-122.498;2023-08-24T10:50:24;6.30;;;3.70;;
50631;SDS011;49583;45.590;-122.498;2023-08-24T10:52:38;5.90;;;4.10;;
50631;SDS011;49583;45.590;-122.498;2023-08-24T10:54:57;3.90;;;3.50;;
50631;SDS011;49583;45.590;-122.498;2023-08-24T10:57:24;5.60;;;3.60;;
50631;SDS011;49583;45.590;-122.498;2023-08-24T10:59:44;4.50;;;3.70;;
50631;SDS011;49583;45.590;-122.498;2023-08-24T11:02:07;3.50;;;2.90;;
50631;SDS011;49583;45.590;-122.498;2023-08-24T11:04:34;4.10;;;3.70;;
50631;SDS011;49583;45.590;-122.498;2023-08-24T11:06:52;5.60;;;3.30;;
50631;SDS011;49583;45.590;-122.498;2023-08-24T11:09:10;6.80;;;3.80;;
50631;SDS011;49583;45.590;-122.498;2023-08-24T11:11:26;4.20;;;3.30;;
50631;SDS011;49583;45.590;-122.498;2023-08-24T11:13:38;4.90;;;3.50;;
50631;SDS011;49583;45.590;-122.498;2023-08-24T11:16:44;5.90;;;3.70;;
50631;SDS011;49583;45.590;-122.498;2023-08-24T11:18:57;4.50;;;3.60;;
50631;SDS011;49583;45.590;-122.498;2023-08-24T11:21:14;6.30;;;3.90;;
50631;SDS011;49583;45.590;-122.498;2023-08-24T11:23:31;4.40;;;3.50;;
50631;SDS011;49583;45.590;-122.498;2023-08-24T11:25:44;6.90;;;3.70;;
50631;SDS011;49583;45.590;-122.498;2023-08-24T11:27:59;5.00;;;3.50;;
50631;SDS011;49583;45.590;-122.498;2023-08-24T11:30:12;6.20;;;3.60;;
50631;SDS011;49583;45.590;-122.498;2023-08-24T11:32:29;9.00;;;3.90;;
50631;SDS011;49583;45.590;-122.498;2023-08-24T11:34:45;5.90;;;3.80;;
50631;SDS011;49583;45.590;-122.498;2023-08-24T11:36:58;4.90;;;3.50;;
50631;SDS011;49583;45.590;-122.498;2023-08-24T11:39:16;9.00;;;3.90;;
50631;SDS011;49583;45.590;-122.498;2023-08-24T11:41:30;5.40;;;3.80;;
50631;SDS011;49583;45.590;-122.498;2023-08-24T11:43:44;6.20;;;4.20;;
50631;SDS011;49583;45.590;-122.498;2023-08-24T11:45:58;3.70;;;3.10;;
50631;SDS011;49583;45.590;-122.498;2023-08-24T11:48:11;4.20;;;3.80;;
50631;SDS011;49583;45.590;-122.498;2023-08-24T11:50:26;4.70;;;3.40;;
50631;SDS011;49583;45.590;-122.498;2023-08-24T11:52:41;5.00;;;3.60;;
50631;SDS011;49583;45.590;-122.498;2023-08-24T11:54:55;4.60;;;3.80;;
50631;SDS011;49583;45.590;-122.498;2023-08-24T11:57:13;7.10;;;4.20;;
50631;SDS011;49583;45.590;-122.498;2023-08-24T11:59:27;4.70;;;4.10;;
50631;SDS011;49583;45.590;-122.498;2023-08-24T12:01:44;8.00;;;3.80;;
50631;SDS011;49583;45.590;-122.498;2023-08-24T12:04:00;4.40;;;3.80;;
50631;SDS011;49583;45.590;-122.498;2023-08-24T12:06:14;4.20;;;3.80;;
50631;SDS011;49583;45.590;-122.498;2023-08-24T12:08:28;8.10;;;4.10;;
50631;SDS011;49583;45.590;-122.498;2023-08-24T12:10:45;5.40;;;4.20;;
50631;SDS011;49583;45.590;-122.498;2023-08-24T12:13:05;6.50;;;4.60;;
50631;SDS011;49583;45.590;-122.498;2023-08-24T12:15:19;4.40;;;3.50;;
50631;SDS011;49583;45.590;-122.498;2023-08-24T12:17:44;6.00;;;3.90;;
50631;SDS011;49583;45.590;-122.498;2023-08-24T12:19:59;4.40;;;3.80;;
50631;SDS011;49583;45.590;-122.498;2023-08-24T12:22:15;6.00;;;4.00;;
50631;SDS011;49583;45.590;-122.498;2023-08-24T12:24:30;7.40;;;3.70;;
50631;SDS011;49583;45.590;-122.498;2023-08-24T12:26:44;5.80;;;4.10;;
50631;SDS011;49583;45.590;-122.498;2023-08-24T12:29:09;4.90;;;3.70;;
50631;SDS011;49583;45.590;-122.498;2023-08-24T12:31:25;5.80;;;3.60;;
50631;SDS011;49583;45.590;-122.498;2023-08-24T12:33:59;6.40;;;4.00;;
50631;SDS011;49583;45.590;-122.498;2023-08-24T12:36:14;5.60;;;3.90;;
50631;SDS011;49583;45.590;-122.498;2023-08-24T12:38:27;6.00;;;4.30;;
50631;SDS011;49583;45.590;-122.498;2023-08-24T12:40:43;4.60;;;4.00;;
50631;SDS011;49583;45.590;-122.498;2023-08-24T12:43:00;5.30;;;4.80;;
50631;SDS011;49583;45.590;-122.498;2023-08-24T12:45:14;7.40;;;3.80;;
50631;SDS011;49583;45.590;-122.498;2023-08-24T12:47:26;6.60;;;4.10;;
50631;SDS011;49583;45.590;-122.498;2023-08-24T12:49:40;5.70;;;3.70;;
50631;SDS011;49583;45.590;-122.498;2023-08-24T12:51:57;7.50;;;4.30;;
50631;SDS011;49583;45.590;-122.498;2023-08-24T12:54:11;7.80;;;4.00;;
50631;SDS011;49583;45.590;-122.498;2023-08-24T12:56:27;6.10;;;4.60;;
50631;SDS011;49583;45.590;-122.498;2023-08-24T12:58:41;7.00;;;4.00;;
50631;SDS011;49583;45.590;-122.498;2023-08-24T13:00:54;5.20;;;4.00;;